sensor_id;sensor_type;location;lat;lon;timestamp;P1;durP1;ratioP1;P2;durP2;ratioP2
80647;SDS011;70012;0.000;0.000;2023-07-31T00:00:42;6.22;;;3.00;;
80647;SDS011;70012;0.000;0.000;2023-07-31T00:03:09;6.75;;;3.00;;
80647;SDS011;70012;0.000;0.000;2023-07-31T00:05:36;6.95;;;3.30;;
80647;SDS011;70012;0.000;0.000;2023-07-31T00:08:03;5.07;;;2.75;;
80647;SDS011;70012;0.000;0.000;2023-07-31T00:10:30;6.63;;;2.40;;
80647;SDS011;70012;0.000;0.000;2023-07-31T00:12:57;6.90;;;2.80;;
80647;SDS011;70012;0.000;0.000;2023-07-31T00:15:24;7.35;;;2.92;;
80647;SDS011;70012;0.000;0.000;2023-07-31T00:17:51;9.20;;;2.90;;
80647;SDS011;70012;0.000;0.000;2023-07-31T00:20:21;5.18;;;2.70;;
80647;SDS011;70012;0.000;0.000;2023-07-31T00:22:48;7.38;;;3.35;;
80647;SDS011;70012;0.000;0.000;2023-07-31T00:25:15;6.70;;;2.78;;
80647;SDS011;70012;0.000;0.000;2023-07-31T00:27:43;5.40;;;2.75;;
80647;SDS011;70012;0.000;0.000;2023-07-31T00:30:12;4.95;;;2.58;;
80647;SDS011;70012;0.000;0.000;2023-07-31T00:32:39;8.20;;;3.00;;
80647;SDS011;70012;0.000;0.000;2023-07-31T00:35:06;4.72;;;2.45;;
80647;SDS011;70012;0.000;0.000;2023-07-31T00:37:33;5.55;;;2.53;;
80647;SDS011;70012;0.000;0.000;2023-07-31T00:40:00;6.15;;;2.33;;
80647;SDS011;70012;0.000;0.000;2023-07-31T00:42:30;3.92;;;2.38;;
80647;SDS011;70012;0.000;0.000;2023-07-31T00:44:57;8.00;;;2.50;;
80647;SDS011;70012;0.000;0.000;2023-07-31T00:47:24;4.25;;;2.33;;
80647;SDS011;70012;0.000;0.000;2023-07-31T00:49:51;4.22;;;2.30;;
80647;SDS011;70012;0.000;0.000;2023-07-31T00:52:19;5.03;;;2.33;;
80647;SDS011;70012;0.000;0.000;2023-07-31T00:54:46;4.00;;;1.90;;
80647;SDS011;70012;0.000;0.000;2023-07-31T00:57:15;3.58;;;2.10;;
80647;SDS011;70012;0.000;0.000;2023-07-31T00:59:42;5.22;;;2.20;;
80647;SDS011;70012;0.000;0.000;2023-07-31T01:02:09;6.07;;;2.65;;
80647;SDS011;70012;0.000;0.000;2023-07-31T01:04:36;4.45;;;2.53;;
80647;SDS011;70012;0.000;0.000;2023-07-31T01:09:53;5.00;;;2.47;;
80647;SDS011;70012;0.000;0.000;2023-07-31T01:12:23;7.80;;;2.53;;
80647;SDS011;70012;0.000;0.000;2023-07-31T01:15:02;5.78;;;2.08;;
80647;SDS011;70012;0.000;0.000;2023-07-31T01:17:33;4.88;;;2.40;;
80647;SDS011;70012;0.000;0.000;2023-07-31T01:20:01;3.17;;;2.47;;
80647;SDS011;70012;0.000;0.000;2023-07-31T01:22:49;4.70;;;2.30;;
80647;SDS011;70012;0.000;0.000;2023-07-31T01:27:59;4.97;;;2.40;;
80647;SDS011;70012;0.000;0.000;2023-07-31T01:30:36;4.05;;;2.33;;
80647;SDS011;70012;0.000;0.000;2023-07-31T01:33:07;4.82;;;2.40;;
80647;SDS011;70012;0.000;0.000;2023-07-31T01:35:36;5.55;;;2.70;;
80647;SDS011;70012;0.000;0.000;2023-07-31T01:38:04;4.78;;;2.20;;
80647;SDS011;70012;0.000;0.000;2023-07-31T01:40:31;5.47;;;2.45;;
80647;SDS011;70012;0.000;0.000;2023-07-31T01:42:58;5.18;;;2.05;;
80647;SDS011;70012;0.000;0.000;2023-07-31T01:45:25;6.85;;;2.17;;
80647;SDS011;70012;0.000;0.000;2023-07-31T01:47:53;4.60;;;2.40;;
80647;SDS011;70012;0.000;0.000;2023-07-31T01:50:20;4.93;;;2.33;;
80647;SDS011;70012;0.000;0.000;2023-07-31T01:52:47;4.15;;;2.20;;
80647;SDS011;70012;0.000;0.000;2023-07-31T01:55:13;8.07;;;2.25;;
80647;SDS011;70012;0.000;0.000;2023-07-31T01:57:40;5.28;;;2.42;;
80647;SDS011;70012;0.000;0.000;2023-07-31T02:00:07;3.55;;;2.33;;
80647;SDS011;70012;0.000;0.000;2023-07-31T02:02:34;4.65;;;2.45;;
80647;SDS011;70012;0.000;0.000;2023-07-31T02:05:02;4.95;;;2.92;;
80647;SDS011;70012;0.000;0.000;2023-07-31T02:07:29;5.97;;;2.60;;
80647;SDS011;70012;0.000;0.000;2023-07-31T02:10:10;4.07;;;2.20;;
80647;SDS011;70012;0.000;0.000;2023-07-31T02:12:37;6.00;;;2.33;;
80647;SDS011;70012;0.000;0.000;2023-07-31T02:15:04;4.72;;;2.30;;
80647;SDS011;70012;0.000;0.000;2023-07-31T02:17:31;5.47;;;2.42;;
80647;SDS011;70012;0.000;0.000;2023-07-31T02:19:59;5.38;;;2.53;;
80647;SDS011;70012;0.000;0.000;2023-07-31T02:22:26;5.65;;;2.58;;
80647;SDS011;70012;0.000;0.000;2023-07-31T02:24:54;4.43;;;2.90;;
80647;SDS011;70012;0.000;0.000;2023-07-31T02:27:21;4.97;;;2.45;;
80647;SDS011;70012;0.000;0.000;2023-07-31T02:29:50;4.82;;;2.25;;
80647;SDS011;70012;0.000;0.000;2023-07-31T02:32:17;5.78;;;2.40;;
80647;SDS011;70012;0.000;0.000;2023-07-31T02:34:44;4.70;;;2.78;;
80647;SDS011;70012;0.000;0.000;2023-07-31T02:37:11;6.45;;;2.78;;
80647;SDS011;70012;0.000;0.000;2023-07-31T02:39:38;5.05;;;2.70;;
80647;SDS011;70012;0.000;0.000;2023-07-31T02:42:05;4.68;;;2.40;;
80647;SDS011;70012;0.000;0.000;2023-07-31T02:44:33;6.53;;;2.80;;
80647;SDS011;70012;0.000;0.000;2023-07-31T02:47:00;7.05;;;2.72;;
80647;SDS011;70012;0.000;0.000;2023-07-31T02:49:28;6.22;;;2.80;;
80647;SDS011;70012;0.000;0.000;2023-07-31T02:51:55;8.70;;;2.80;;
80647;SDS011;70012;0.000;0.000;2023-07-31T02:54:22;5.78;;;2.40;;
80647;SDS011;70012;0.000;0.000;2023-07-31T02:56:49;6.90;;;3.05;;
80647;SDS011;70012;0.000;0.000;2023-07-31T02:59:16;5.75;;;2.97;;
80647;SDS011;70012;0.000;0.000;2023-07-31T03:01:44;7.53;;;2.65;;
80647;SDS011;70012;0.000;0.000;2023-07-31T03:04:11;4.80;;;2.58;;
80647;SDS011;70012;0.000;0.000;2023-07-31T03:06:38;6.60;;;2.90;;
80647;SDS011;70012;0.000;0.000;2023-07-31T03:09:06;5.80;;;2.75;;
80647;SDS011;70012;0.000;0.000;2023-07-31T03:11:33;6.43;;;2.70;;
80647;SDS011;70012;0.000;0.000;2023-07-31T03:13:59;6.00;;;2.53;;
80647;SDS011;70012;0.000;0.000;2023-07-31T03:16:26;7.78;;;3.22;;
80647;SDS011;70012;0.000;0.000;2023-07-31T03:18:54;5.55;;;2.55;;
80647;SDS011;70012;0.000;0.000;2023-07-31T03:21:21;10.25;;;2.92;;
80647;SDS011;70012;0.000;0.000;2023-07-31T03:23:50;5.82;;;2.70;;
80647;SDS011;70012;0.000;0.000;2023-07-31T03:26:17;6.78;;;2.90;;
80647;SDS011;70012;0.000;0.000;2023-07-31T03:28:44;7.85;;;2.92;;
80647;SDS011;70012;0.000;0.000;2023-07-31T03:31:11;9.63;;;3.00;;
80647;SDS011;70012;0.000;0.000;2023-07-31T03:33:39;4.72;;;2.88;;
80647;SDS011;70012;0.000;0.000;2023-07-31T03:36:06;8.10;;;3.20;;
80647;SDS011;70012;0.000;0.000;2023-07-31T03:38:34;4.90;;;2.63;;
80647;SDS011;70012;0.000;0.000;2023-07-31T03:41:01;5.22;;;2.85;;
80647;SDS011;70012;0.000;0.000;2023-07-31T03:43:29;7.68;;;2.67;;
80647;SDS011;70012;0.000;0.000;2023-07-31T03:45:57;5.30;;;2.70;;
80647;SDS011;70012;0.000;0.000;2023-07-31T03:48:24;4.80;;;2.42;;
80647;SDS011;70012;0.000;0.000;2023-07-31T03:50:52;6.20;;;2.80;;
80647;SDS011;70012;0.000;0.000;2023-07-31T03:53:19;9.40;;;2.78;;
80647;SDS011;70012;0.000;0.000;2023-07-31T03:55:46;5.50;;;2.67;;
80647;SDS011;70012;0.000;0.000;2023-07-31T03:58:13;9.00;;;3.30;;
80647;SDS011;70012;0.000;0.000;2023-07-31T04:00:40;4.13;;;2.58;;
80647;SDS011;70012;0.000;0.000;2023-07-31T04:03:07;5.53;;;2.60;;
80647;SDS011;70012;0.000;0.000;2023-07-31T04:05:37;5.43;;;2.95;;
80647;SDS011;70012;0.000;0.000;2023-07-31T04:08:05;5.25;;;2.50;;
80647;SDS011;70012;0.000;0.000;2023-07-31T04:10:32;4.20;;;2.58;;
80647;SDS011;70012;0.000;0.000;2023-07-31T04:13:00;6.28;;;2.70;;
80647;SDS011;70012;0.000;0.000;2023-07-31T04:15:27;4.93;;;3.05;;
80647;SDS011;70012;0.000;0.000;2023-07-31T04:17:54;9.20;;;3.20;;
80647;SDS011;70012;0.000;0.000;2023-07-31T04:20:21;3.90;;;2.53;;
80647;SDS011;70012;0.000;0.000;2023-07-31T04:22:48;6.05;;;3.10;;
80647;SDS011;70012;0.000;0.000;2023-07-31T04:25:15;6.05;;;3.13;;
80647;SDS011;70012;0.000;0.000;2023-07-31T04:27:42;5.82;;;2.85;;
80647;SDS011;70012;0.000;0.000;2023-07-31T04:30:09;7.55;;;3.30;;
80647;SDS011;70012;0.000;0.000;2023-07-31T04:32:36;7.72;;;3.00;;
80647;SDS011;70012;0.000;0.000;2023-07-31T04:35:03;8.55;;;3.00;;
80647;SDS011;70012;0.000;0.000;2023-07-31T04:37:30;5.25;;;3.13;;
80647;SDS011;70012;0.000;0.000;2023-07-31T04:39:57;4.60;;;2.55;;
80647;SDS011;70012;0.000;0.000;2023-07-31T04:42:23;6.93;;;3.17;;
80647;SDS011;70012;0.000;0.000;2023-07-31T04:44:50;6.97;;;3.17;;
80647;SDS011;70012;0.000;0.000;2023-07-31T04:47:19;9.80;;;3.47;;
80647;SDS011;70012;0.000;0.000;2023-07-31T04:49:46;6.32;;;3.25;;
80647;SDS011;70012;0.000;0.000;2023-07-31T04:52:13;6.82;;;2.90;;
80647;SDS011;70012;0.000;0.000;2023-07-31T04:54:39;8.95;;;3.22;;
80647;SDS011;70012;0.000;0.000;2023-07-31T04:57:06;11.38;;;3.53;;
80647;SDS011;70012;0.000;0.000;2023-07-31T04:59:33;8.30;;;3.35;;
80647;SDS011;70012;0.000;0.000;2023-07-31T05:02:00;7.88;;;3.35;;
80647;SDS011;70012;0.000;0.000;2023-07-31T05:04:27;6.28;;;3.28;;
80647;SDS011;70012;0.000;0.000;2023-07-31T05:06:57;6.35;;;3.42;;
80647;SDS011;70012;0.000;0.000;2023-07-31T05:09:24;8.32;;;3.10;;
80647;SDS011;70012;0.000;0.000;2023-07-31T05:11:50;7.05;;;3.42;;
80647;SDS011;70012;0.000;0.000;2023-07-31T05:14:17;5.82;;;3.30;;
80647;SDS011;70012;0.000;0.000;2023-07-31T05:16:44;5.80;;;3.50;;
80647;SDS011;70012;0.000;0.000;2023-07-31T05:19:11;5.47;;;2.75;;
80647;SDS011;70012;0.000;0.000;2023-07-31T05:21:38;5.90;;;3.45;;
80647;SDS011;70012;0.000;0.000;2023-07-31T05:24:05;4.78;;;2.72;;
80647;SDS011;70012;0.000;0.000;2023-07-31T05:26:33;5.55;;;3.20;;
80647;SDS011;70012;0.000;0.000;2023-07-31T05:29:00;6.70;;;2.83;;
80647;SDS011;70012;0.000;0.000;2023-07-31T05:31:27;5.93;;;3.13;;
80647;SDS011;70012;0.000;0.000;2023-07-31T05:33:54;7.22;;;3.45;;
80647;SDS011;70012;0.000;0.000;2023-07-31T05:36:21;6.82;;;3.00;;
80647;SDS011;70012;0.000;0.000;2023-07-31T05:38:48;4.88;;;2.90;;
80647;SDS011;70012;0.000;0.000;2023-07-31T05:41:16;7.82;;;2.97;;
80647;SDS011;70012;0.000;0.000;2023-07-31T05:43:43;5.30;;;3.10;;
80647;SDS011;70012;0.000;0.000;2023-07-31T05:46:11;10.50;;;3.47;;
80647;SDS011;70012;0.000;0.000;2023-07-31T05:48:38;5.53;;;3.25;;
80647;SDS011;70012;0.000;0.000;2023-07-31T05:51:05;3.88;;;2.72;;
80647;SDS011;70012;0.000;0.000;2023-07-31T05:53:32;5.38;;;2.60;;
80647;SDS011;70012;0.000;0.000;2023-07-31T05:55:59;3.95;;;2.65;;
80647;SDS011;70012;0.000;0.000;2023-07-31T05:58:25;6.25;;;2.95;;
80647;SDS011;70012;0.000;0.000;2023-07-31T06:00:52;5.15;;;2.80;;
80647;SDS011;70012;0.000;0.000;2023-07-31T06:03:19;4.88;;;2.78;;
80647;SDS011;70012;0.000;0.000;2023-07-31T06:05:46;4.03;;;2.80;;
80647;SDS011;70012;0.000;0.000;2023-07-31T06:08:12;4.70;;;2.90;;
80647;SDS011;70012;0.000;0.000;2023-07-31T06:10:39;8.10;;;3.33;;
80647;SDS011;70012;0.000;0.000;2023-07-31T06:13:06;5.15;;;3.22;;
80647;SDS011;70012;0.000;0.000;2023-07-31T06:15:35;5.60;;;2.92;;
80647;SDS011;70012;0.000;0.000;2023-07-31T06:18:02;5.45;;;2.80;;
80647;SDS011;70012;0.000;0.000;2023-07-31T06:20:29;5.78;;;3.28;;
80647;SDS011;70012;0.000;0.000;2023-07-31T06:22:57;5.40;;;2.97;;
80647;SDS011;70012;0.000;0.000;2023-07-31T06:25:24;6.07;;;3.60;;
80647;SDS011;70012;0.000;0.000;2023-07-31T06:27:50;6.80;;;2.95;;
80647;SDS011;70012;0.000;0.000;2023-07-31T06:30:17;6.22;;;2.95;;
80647;SDS011;70012;0.000;0.000;2023-07-31T06:32:44;6.35;;;3.53;;
80647;SDS011;70012;0.000;0.000;2023-07-31T06:35:11;6.30;;;3.30;;
80647;SDS011;70012;0.000;0.000;2023-07-31T06:37:38;7.32;;;3.60;;
80647;SDS011;70012;0.000;0.000;2023-07-31T06:40:07;7.47;;;3.50;;
80647;SDS011;70012;0.000;0.000;2023-07-31T06:42:35;9.35;;;3.40;;
80647;SDS011;70012;0.000;0.000;2023-07-31T06:45:02;4.88;;;3.13;;
80647;SDS011;70012;0.000;0.000;2023-07-31T06:47:29;5.40;;;3.20;;
80647;SDS011;70012;0.000;0.000;2023-07-31T06:49:56;6.13;;;3.15;;
80647;SDS011;70012;0.000;0.000;2023-07-31T06:52:23;6.57;;;3.60;;
80647;SDS011;70012;0.000;0.000;2023-07-31T06:57:49;7.57;;;3.58;;
80647;SDS011;70012;0.000;0.000;2023-07-31T07:00:18;7.35;;;3.63;;
80647;SDS011;70012;0.000;0.000;2023-07-31T07:02:46;5.88;;;3.30;;
80647;SDS011;70012;0.000;0.000;2023-07-31T07:05:17;6.53;;;3.47;;
80647;SDS011;70012;0.000;0.000;2023-07-31T07:07:44;8.75;;;3.25;;
80647;SDS011;70012;0.000;0.000;2023-07-31T07:10:11;7.15;;;3.50;;
80647;SDS011;70012;0.000;0.000;2023-07-31T07:12:38;5.97;;;3.13;;
80647;SDS011;70012;0.000;0.000;2023-07-31T07:15:05;8.50;;;3.00;;
80647;SDS011;70012;0.000;0.000;2023-07-31T07:17:32;6.03;;;3.47;;
80647;SDS011;70012;0.000;0.000;2023-07-31T07:19:59;7.65;;;3.25;;
80647;SDS011;70012;0.000;0.000;2023-07-31T07:22:26;5.18;;;3.08;;
80647;SDS011;70012;0.000;0.000;2023-07-31T07:24:54;8.48;;;3.30;;
80647;SDS011;70012;0.000;0.000;2023-07-31T07:27:21;5.22;;;2.80;;
80647;SDS011;70012;0.000;0.000;2023-07-31T07:29:50;5.38;;;3.05;;
80647;SDS011;70012;0.000;0.000;2023-07-31T07:32:17;7.90;;;3.63;;
80647;SDS011;70012;0.000;0.000;2023-07-31T07:34:45;7.45;;;3.00;;
80647;SDS011;70012;0.000;0.000;2023-07-31T07:37:12;6.82;;;2.70;;
80647;SDS011;70012;0.000;0.000;2023-07-31T07:39:38;5.20;;;2.85;;
80647;SDS011;70012;0.000;0.000;2023-07-31T07:42:05;5.97;;;3.05;;
80647;SDS011;70012;0.000;0.000;2023-07-31T07:44:32;5.80;;;3.10;;
80647;SDS011;70012;0.000;0.000;2023-07-31T07:46:59;6.55;;;3.47;;
80647;SDS011;70012;0.000;0.000;2023-07-31T07:49:26;7.47;;;3.08;;
80647;SDS011;70012;0.000;0.000;2023-07-31T07:51:54;6.10;;;3.08;;
80647;SDS011;70012;0.000;0.000;2023-07-31T07:54:21;9.02;;;3.30;;
80647;SDS011;70012;0.000;0.000;2023-07-31T07:56:50;5.97;;;2.67;;
80647;SDS011;70012;0.000;0.000;2023-07-31T07:59:17;5.50;;;3.50;;
80647;SDS011;70012;0.000;0.000;2023-07-31T08:01:45;5.53;;;2.78;;
80647;SDS011;70012;0.000;0.000;2023-07-31T08:04:12;5.70;;;3.15;;
80647;SDS011;70012;0.000;0.000;2023-07-31T08:06:39;6.95;;;3.00;;
80647;SDS011;70012;0.000;0.000;2023-07-31T08:09:07;5.55;;;2.97;;
80647;SDS011;70012;0.000;0.000;2023-07-31T08:11:35;7.03;;;2.75;;
80647;SDS011;70012;0.000;0.000;2023-07-31T08:14:02;5.18;;;3.00;;
80647;SDS011;70012;0.000;0.000;2023-07-31T08:16:29;6.07;;;3.00;;
80647;SDS011;70012;0.000;0.000;2023-07-31T08:18:56;5.40;;;2.60;;
80647;SDS011;70012;0.000;0.000;2023-07-31T08:21:23;6.30;;;2.90;;
80647;SDS011;70012;0.000;0.000;2023-07-31T08:23:53;3.42;;;2.40;;
80647;SDS011;70012;0.000;0.000;2023-07-31T08:26:20;4.18;;;2.90;;
80647;SDS011;70012;0.000;0.000;2023-07-31T08:28:50;6.97;;;2.90;;
80647;SDS011;70012;0.000;0.000;2023-07-31T08:31:19;4.63;;;2.63;;
80647;SDS011;70012;0.000;0.000;2023-07-31T08:33:46;7.13;;;2.78;;
80647;SDS011;70012;0.000;0.000;2023-07-31T08:36:17;7.32;;;3.00;;
80647;SDS011;70012;0.000;0.000;2023-07-31T08:38:45;8.20;;;2.85;;
80647;SDS011;70012;0.000;0.000;2023-07-31T08:41:12;4.32;;;2.38;;
80647;SDS011;70012;0.000;0.000;2023-07-31T08:43:45;5.10;;;2.60;;
80647;SDS011;70012;0.000;0.000;2023-07-31T08:46:13;5.13;;;2.40;;
80647;SDS011;70012;0.000;0.000;2023-07-31T08:48:43;5.00;;;2.85;;
80647;SDS011;70012;0.000;0.000;2023-07-31T08:51:11;3.25;;;2.33;;
80647;SDS011;70012;0.000;0.000;2023-07-31T08:53:40;7.03;;;2.92;;
80647;SDS011;70012;0.000;0.000;2023-07-31T08:56:07;4.90;;;2.28;;
80647;SDS011;70012;0.000;0.000;2023-07-31T08:58:34;3.67;;;2.25;;
80647;SDS011;70012;0.000;0.000;2023-07-31T09:01:03;5.07;;;2.63;;
80647;SDS011;70012;0.000;0.000;2023-07-31T09:03:33;4.15;;;2.15;;
80647;SDS011;70012;0.000;0.000;2023-07-31T09:06:02;3.50;;;2.25;;
80647;SDS011;70012;0.000;0.000;2023-07-31T09:08:32;4.53;;;2.20;;
80647;SDS011;70012;0.000;0.000;2023-07-31T09:10:59;3.95;;;2.05;;
80647;SDS011;70012;0.000;0.000;2023-07-31T09:13:31;4.13;;;2.17;;
80647;SDS011;70012;0.000;0.000;2023-07-31T09:16:00;3.38;;;2.05;;
80647;SDS011;70012;0.000;0.000;2023-07-31T09:18:26;3.25;;;2.10;;
80647;SDS011;70012;0.000;0.000;2023-07-31T09:21:06;4.25;;;2.25;;
80647;SDS011;70012;0.000;0.000;2023-07-31T09:23:46;4.10;;;2.40;;
80647;SDS011;70012;0.000;0.000;2023-07-31T09:26:32;5.30;;;2.40;;
80647;SDS011;70012;0.000;0.000;2023-07-31T09:29:01;5.20;;;2.05;;
80647;SDS011;70012;0.000;0.000;2023-07-31T09:31:38;3.72;;;1.83;;
80647;SDS011;70012;0.000;0.000;2023-07-31T09:34:09;3.83;;;2.10;;
80647;SDS011;70012;0.000;0.000;2023-07-31T09:36:48;4.97;;;2.60;;
80647;SDS011;70012;0.000;0.000;2023-07-31T09:39:17;2.95;;;1.92;;
80647;SDS011;70012;0.000;0.000;2023-07-31T09:41:46;4.70;;;2.03;;
80647;SDS011;70012;0.000;0.000;2023-07-31T09:44:14;3.42;;;1.85;;
80647;SDS011;70012;0.000;0.000;2023-07-31T09:46:41;4.00;;;2.25;;
80647;SDS011;70012;0.000;0.000;2023-07-31T09:49:09;3.95;;;2.20;;
80647;SDS011;70012;0.000;0.000;2023-07-31T09:51:38;4.35;;;1.80;;
80647;SDS011;70012;0.000;0.000;2023-07-31T09:54:09;3.05;;;1.95;;
80647;SDS011;70012;0.000;0.000;2023-07-31T09:56:44;3.53;;;2.17;;
80647;SDS011;70012;0.000;0.000;2023-07-31T09:59:13;4.20;;;1.92;;
80647;SDS011;70012;0.000;0.000;2023-07-31T10:01:50;2.78;;;1.77;;
80647;SDS011;70012;0.000;0.000;2023-07-31T10:04:18;8.38;;;3.10;;
80647;SDS011;70012;0.000;0.000;2023-07-31T10:06:52;6.28;;;2.13;;
80647;SDS011;70012;0.000;0.000;2023-07-31T10:09:23;4.88;;;2.10;;
80647;SDS011;70012;0.000;0.000;2023-07-31T10:11:53;3.53;;;2.10;;
80647;SDS011;70012;0.000;0.000;2023-07-31T10:14:26;3.95;;;2.13;;
80647;SDS011;70012;0.000;0.000;2023-07-31T10:16:55;3.05;;;1.90;;
80647;SDS011;70012;0.000;0.000;2023-07-31T10:19:24;3.22;;;2.13;;
80647;SDS011;70012;0.000;0.000;2023-07-31T10:21:56;4.20;;;2.10;;
80647;SDS011;70012;0.000;0.000;2023-07-31T10:24:25;4.88;;;2.22;;
80647;SDS011;70012;0.000;0.000;2023-07-31T10:26:53;4.15;;;2.20;;
80647;SDS011;70012;0.000;0.000;2023-07-31T10:32:52;5.82;;;2.17;;
80647;SDS011;70012;0.000;0.000;2023-07-31T10:35:23;4.82;;;1.92;;
80647;SDS011;70012;0.000;0.000;2023-07-31T10:37:50;3.10;;;1.88;;
80647;SDS011;70012;0.000;0.000;2023-07-31T10:40:19;6.45;;;2.10;;
80647;SDS011;70012;0.000;0.000;2023-07-31T10:42:54;6.43;;;2.38;;
80647;SDS011;70012;0.000;0.000;2023-07-31T10:45:37;4.45;;;1.90;;
80647;SDS011;70012;0.000;0.000;2023-07-31T10:48:06;6.13;;;2.47;;
80647;SDS011;70012;0.000;0.000;2023-07-31T10:50:46;3.25;;;1.92;;
80647;SDS011;70012;0.000;0.000;2023-07-31T10:53:28;3.88;;;2.15;;
80647;SDS011;70012;0.000;0.000;2023-07-31T10:56:00;5.57;;;2.40;;
80647;SDS011;70012;0.000;0.000;2023-07-31T10:58:45;3.78;;;1.58;;
80647;SDS011;70012;0.000;0.000;2023-07-31T11:01:15;4.07;;;2.00;;
80647;SDS011;70012;0.000;0.000;2023-07-31T11:03:46;3.75;;;1.48;;
80647;SDS011;70012;0.000;0.000;2023-07-31T11:06:16;2.67;;;1.42;;
80647;SDS011;70012;0.000;0.000;2023-07-31T11:08:48;3.75;;;1.73;;
80647;SDS011;70012;0.000;0.000;2023-07-31T11:11:17;3.17;;;1.63;;
80647;SDS011;70012;0.000;0.000;2023-07-31T11:13:48;3.13;;;1.63;;
80647;SDS011;70012;0.000;0.000;2023-07-31T11:16:20;2.60;;;1.50;;
80647;SDS011;70012;0.000;0.000;2023-07-31T11:18:50;2.05;;;1.30;;
80647;SDS011;70012;0.000;0.000;2023-07-31T11:21:24;2.92;;;1.50;;
80647;SDS011;70012;0.000;0.000;2023-07-31T11:23:52;2.00;;;1.40;;
80647;SDS011;70012;0.000;0.000;2023-07-31T11:26:24;2.00;;;1.42;;
80647;SDS011;70012;0.000;0.000;2023-07-31T11:28:51;1.50;;;1.20;;
80647;SDS011;70012;0.000;0.000;2023-07-31T11:31:22;1.17;;;1.05;;
80647;SDS011;70012;0.000;0.000;2023-07-31T11:33:49;1.35;;;1.15;;
80647;SDS011;70012;0.000;0.000;2023-07-31T11:36:16;1.83;;;1.30;;
80647;SDS011;70012;0.000;0.000;2023-07-31T11:38:44;1.92;;;1.10;;
80647;SDS011;70012;0.000;0.000;2023-07-31T11:41:13;1.75;;;0.90;;
80647;SDS011;70012;0.000;0.000;2023-07-31T11:43:42;2.75;;;1.25;;
80647;SDS011;70012;0.000;0.000;2023-07-31T11:46:09;1.38;;;1.08;;
80647;SDS011;70012;0.000;0.000;2023-07-31T11:48:37;2.40;;;1.40;;
80647;SDS011;70012;0.000;0.000;2023-07-31T11:51:05;1.90;;;1.20;;
80647;SDS011;70012;0.000;0.000;2023-07-31T11:56:09;2.15;;;1.30;;
80647;SDS011;70012;0.000;0.000;2023-07-31T11:58:38;2.58;;;1.50;;
80647;SDS011;70012;0.000;0.000;2023-07-31T12:01:06;1.15;;;1.00;;
80647;SDS011;70012;0.000;0.000;2023-07-31T12:03:33;2.03;;;1.48;;
80647;SDS011;70012;0.000;0.000;2023-07-31T12:06:01;2.83;;;1.50;;
80647;SDS011;70012;0.000;0.000;2023-07-31T12:08:29;2.38;;;1.55;;
80647;SDS011;70012;0.000;0.000;2023-07-31T12:11:01;2.30;;;1.48;;
80647;SDS011;70012;0.000;0.000;2023-07-31T12:13:31;3.05;;;1.50;;
80647;SDS011;70012;0.000;0.000;2023-07-31T12:15:59;2.45;;;1.40;;
80647;SDS011;70012;0.000;0.000;2023-07-31T12:18:34;2.67;;;1.85;;
80647;SDS011;70012;0.000;0.000;2023-07-31T12:21:03;3.72;;;1.73;;
80647;SDS011;70012;0.000;0.000;2023-07-31T12:23:32;2.97;;;1.98;;
80647;SDS011;70012;0.000;0.000;2023-07-31T12:26:01;3.40;;;2.20;;
80647;SDS011;70012;0.000;0.000;2023-07-31T12:28:28;2.97;;;1.90;;
80647;SDS011;70012;0.000;0.000;2023-07-31T12:30:59;2.72;;;1.88;;
80647;SDS011;70012;0.000;0.000;2023-07-31T12:33:31;3.85;;;2.50;;
80647;SDS011;70012;0.000;0.000;2023-07-31T12:36:00;3.20;;;2.30;;
80647;SDS011;70012;0.000;0.000;2023-07-31T12:38:31;4.45;;;2.80;;
80647;SDS011;70012;0.000;0.000;2023-07-31T12:40:58;5.68;;;3.33;;
80647;SDS011;70012;0.000;0.000;2023-07-31T12:43:25;5.25;;;2.72;;
80647;SDS011;70012;0.000;0.000;2023-07-31T12:45:53;4.13;;;2.83;;
80647;SDS011;70012;0.000;0.000;2023-07-31T12:48:20;4.55;;;2.85;;
80647;SDS011;70012;0.000;0.000;2023-07-31T12:50:47;4.55;;;2.72;;
80647;SDS011;70012;0.000;0.000;2023-07-31T12:53:17;6.57;;;2.70;;
80647;SDS011;70012;0.000;0.000;2023-07-31T12:55:44;5.28;;;2.90;;
80647;SDS011;70012;0.000;0.000;2023-07-31T12:58:10;4.55;;;2.83;;
80647;SDS011;70012;0.000;0.000;2023-07-31T13:00:37;5.55;;;2.90;;
80647;SDS011;70012;0.000;0.000;2023-07-31T13:03:04;5.13;;;2.75;;
80647;SDS011;70012;0.000;0.000;2023-07-31T13:05:31;5.32;;;2.90;;
80647;SDS011;70012;0.000;0.000;2023-07-31T13:07:57;5.07;;;3.30;;
80647;SDS011;70012;0.000;0.000;2023-07-31T13:10:24;3.70;;;2.67;;
80647;SDS011;70012;0.000;0.000;2023-07-31T13:12:53;3.60;;;2.78;;
80647;SDS011;70012;0.000;0.000;2023-07-31T13:15:19;4.25;;;2.70;;
80647;SDS011;70012;0.000;0.000;2023-07-31T13:17:46;3.88;;;2.65;;
80647;SDS011;70012;0.000;0.000;2023-07-31T13:20:13;5.68;;;2.78;;
80647;SDS011;70012;0.000;0.000;2023-07-31T13:22:40;3.13;;;2.15;;
80647;SDS011;70012;0.000;0.000;2023-07-31T13:25:10;3.55;;;2.38;;
80647;SDS011;70012;0.000;0.000;2023-07-31T13:27:36;3.22;;;2.13;;
80647;SDS011;70012;0.000;0.000;2023-07-31T13:30:06;4.85;;;2.40;;
80647;SDS011;70012;0.000;0.000;2023-07-31T13:32:33;5.20;;;2.45;;
80647;SDS011;70012;0.000;0.000;2023-07-31T13:35:00;3.97;;;2.70;;
80647;SDS011;70012;0.000;0.000;2023-07-31T13:37:27;4.57;;;2.40;;
80647;SDS011;70012;0.000;0.000;2023-07-31T13:39:54;3.20;;;2.20;;
80647;SDS011;70012;0.000;0.000;2023-07-31T13:42:20;3.58;;;2.30;;
80647;SDS011;70012;0.000;0.000;2023-07-31T13:44:48;3.30;;;2.20;;
80647;SDS011;70012;0.000;0.000;2023-07-31T13:47:15;2.78;;;2.00;;
80647;SDS011;70012;0.000;0.000;2023-07-31T13:49:41;2.92;;;2.03;;
80647;SDS011;70012;0.000;0.000;2023-07-31T13:52:09;4.03;;;2.05;;
80647;SDS011;70012;0.000;0.000;2023-07-31T13:54:36;2.97;;;2.25;;
80647;SDS011;70012;0.000;0.000;2023-07-31T13:57:02;4.05;;;2.10;;
80647;SDS011;70012;0.000;0.000;2023-07-31T13:59:29;2.40;;;1.92;;
80647;SDS011;70012;0.000;0.000;2023-07-31T14:01:56;3.60;;;2.20;;
80647;SDS011;70012;0.000;0.000;2023-07-31T14:04:23;4.90;;;2.38;;
80647;SDS011;70012;0.000;0.000;2023-07-31T14:06:49;5.20;;;2.17;;
80647;SDS011;70012;0.000;0.000;2023-07-31T14:09:17;3.30;;;2.50;;
80647;SDS011;70012;0.000;0.000;2023-07-31T14:11:47;2.60;;;2.00;;
80647;SDS011;70012;0.000;0.000;2023-07-31T14:14:16;3.20;;;2.28;;
80647;SDS011;70012;0.000;0.000;2023-07-31T14:16:44;4.45;;;2.25;;
80647;SDS011;70012;0.000;0.000;2023-07-31T14:19:11;3.72;;;2.10;;
80647;SDS011;70012;0.000;0.000;2023-07-31T14:21:38;3.83;;;2.00;;
80647;SDS011;70012;0.000;0.000;2023-07-31T14:24:04;3.00;;;1.90;;
80647;SDS011;70012;0.000;0.000;2023-07-31T14:26:31;2.97;;;1.80;;
80647;SDS011;70012;0.000;0.000;2023-07-31T14:28:58;2.70;;;1.95;;
80647;SDS011;70012;0.000;0.000;2023-07-31T14:31:24;3.70;;;1.92;;
80647;SDS011;70012;0.000;0.000;2023-07-31T14:33:51;3.03;;;1.98;;
80647;SDS011;70012;0.000;0.000;2023-07-31T14:36:22;3.35;;;2.33;;
80647;SDS011;70012;0.000;0.000;2023-07-31T14:38:48;3.50;;;2.10;;
80647;SDS011;70012;0.000;0.000;2023-07-31T14:41:15;3.25;;;2.03;;
80647;SDS011;70012;0.000;0.000;2023-07-31T14:43:42;4.28;;;2.35;;
80647;SDS011;70012;0.000;0.000;2023-07-31T14:46:08;4.35;;;2.40;;
80647;SDS011;70012;0.000;0.000;2023-07-31T14:48:35;4.72;;;2.25;;
80647;SDS011;70012;0.000;0.000;2023-07-31T14:51:02;2.53;;;1.80;;
80647;SDS011;70012;0.000;0.000;2023-07-31T14:53:28;3.63;;;2.30;;
80647;SDS011;70012;0.000;0.000;2023-07-31T14:55:55;3.60;;;2.20;;
80647;SDS011;70012;0.000;0.000;2023-07-31T14:58:23;4.47;;;2.35;;
80647;SDS011;70012;0.000;0.000;2023-07-31T15:00:50;4.30;;;2.70;;
80647;SDS011;70012;0.000;0.000;2023-07-31T15:03:17;2.80;;;2.05;;
80647;SDS011;70012;0.000;0.000;2023-07-31T15:05:44;4.53;;;2.35;;
80647;SDS011;70012;0.000;0.000;2023-07-31T15:08:10;2.83;;;2.20;;
80647;SDS011;70012;0.000;0.000;2023-07-31T15:10:37;3.88;;;2.38;;
80647;SDS011;70012;0.000;0.000;2023-07-31T15:13:04;3.58;;;2.35;;
80647;SDS011;70012;0.000;0.000;2023-07-31T15:15:30;4.57;;;2.10;;
80647;SDS011;70012;0.000;0.000;2023-07-31T15:17:57;3.70;;;2.35;;
80647;SDS011;70012;0.000;0.000;2023-07-31T15:20:24;4.20;;;2.28;;